createdAt,value
2022-11-24T00:01:15.585Z,3.85
2022-11-24T00:03:43.815Z,5.63
2022-11-24T00:06:13.459Z,6.65
2022-11-24T00:08:42.178Z,5.32
2022-11-24T00:11:11.747Z,4.05
2022-11-24T00:13:41.439Z,5.07
2022-11-24T00:16:19.545Z,3.33
2022-11-24T00:18:47.996Z,4.75
2022-11-24T00:21:15.918Z,3.53
2022-11-24T00:23:42.754Z,3.70
2022-11-24T00:26:18.267Z,4.85
2022-11-24T00:28:46.171Z,3.85
2022-11-24T00:31:20.292Z,5.57
2022-11-24T00:33:48.882Z,6.90
2022-11-24T00:36:16.650Z,4.18
2022-11-24T00:38:43.590Z,5.00
2022-11-24T00:41:10.391Z,4.47
2022-11-24T00:43:37.015Z,3.90
2022-11-24T00:46:04.045Z,4.25
2022-11-24T00:48:31.881Z,5.70
2022-11-24T00:51:03.777Z,4.60
2022-11-24T00:53:30.772Z,4.13
2022-11-24T00:55:57.412Z,4.65
2022-11-24T00:58:24.895Z,5.75
2022-11-24T01:00:52.406Z,4.43
2022-11-24T01:03:20.848Z,4.28
2022-11-24T01:05:47.584Z,3.65
2022-11-24T01:08:14.244Z,6.22
2022-11-24T01:10:40.889Z,4.20
2022-11-24T01:13:07.568Z,3.92
2022-11-24T01:15:35.739Z,4.85
2022-11-24T01:18:02.868Z,4.03
2022-11-24T01:20:30.400Z,5.05
2022-11-24T01:22:56.987Z,6.47
2022-11-24T01:25:23.804Z,4.35
2022-11-24T01:27:50.359Z,5.13
2022-11-24T01:30:17.165Z,6.75
2022-11-24T01:32:43.714Z,6.07
2022-11-24T01:35:10.526Z,5.28
2022-11-24T01:37:37.063Z,5.05
2022-11-24T01:40:03.989Z,4.95
2022-11-24T01:42:59.704Z,3.58
2022-11-24T01:45:34.102Z,3.55
2022-11-24T01:48:04.618Z,4.32
2022-11-24T01:50:32.652Z,4.45
2022-11-24T01:52:59.502Z,5.43
2022-11-24T01:55:31.528Z,4.93
2022-11-24T01:58:06.257Z,4.97
2022-11-24T02:00:35.399Z,4.60
2022-11-24T02:03:02.189Z,6.32
2022-11-24T02:05:38.998Z,4.68
2022-11-24T02:08:10.844Z,4.53
2022-11-24T02:10:37.933Z,3.80
2022-11-24T02:13:04.971Z,5.47
2022-11-24T02:15:32.321Z,5.43
2022-11-24T02:17:59.196Z,4.97
2022-11-24T02:20:26.523Z,6.65
2022-11-24T02:23:06.887Z,4.18
2022-11-24T02:25:42.511Z,5.38
2022-11-24T02:28:15.308Z,5.05
2022-11-24T02:30:42.356Z,5.38
2022-11-24T02:33:11.286Z,3.22
2022-11-24T02:35:37.894Z,4.90
2022-11-24T02:38:04.567Z,5.93
2022-11-24T02:40:31.692Z,5.93
2022-11-24T02:43:04.620Z,4.68
2022-11-24T02:45:31.953Z,4.55
2022-11-24T02:47:58.796Z,5.18
2022-11-24T02:50:25.946Z,3.80
2022-11-24T02:52:52.532Z,3.40
2022-11-24T02:55:20.311Z,4.30
2022-11-24T02:57:47.325Z,4.65
2022-11-24T03:00:14.407Z,4.15
2022-11-24T03:02:41.036Z,4.22
2022-11-24T03:05:08.360Z,5.63
2022-11-24T03:07:35.009Z,5.70
2022-11-24T03:10:01.574Z,4.68
2022-11-24T03:12:28.099Z,7.82
2022-11-24T03:14:54.660Z,5.28
2022-11-24T03:17:21.328Z,4.95
2022-11-24T03:19:47.856Z,5.00
2022-11-24T03:22:14.746Z,3.60
2022-11-24T03:24:41.328Z,4.10
2022-11-24T03:27:07.964Z,3.58
2022-11-24T03:29:34.590Z,4.63
2022-11-24T03:32:01.705Z,7.93
2022-11-24T03:34:28.252Z,4.40
2022-11-24T03:36:54.800Z,5.40
2022-11-24T03:39:21.397Z,5.20
2022-11-24T03:41:47.976Z,3.83
2022-11-24T03:44:14.572Z,4.28
2022-11-24T03:46:41.159Z,4.45
2022-11-24T03:49:07.744Z,6.10
2022-11-24T03:51:34.341Z,5.13
2022-11-24T03:54:00.886Z,3.67
2022-11-24T03:56:28.000Z,4.05
2022-11-24T03:58:54.645Z,4.22
2022-11-24T04:01:21.260Z,5.82
2022-11-24T04:03:47.979Z,6.65
2022-11-24T04:06:14.551Z,4.65
2022-11-24T04:08:41.112Z,5.55
2022-11-24T04:11:07.686Z,4.22
2022-11-24T04:13:34.295Z,5.38
2022-11-24T04:16:05.098Z,3.90
2022-11-24T04:18:31.604Z,4.78
2022-11-24T04:20:58.103Z,4.10
2022-11-24T04:23:24.613Z,5.97
2022-11-24T04:25:51.136Z,4.13
2022-11-24T04:28:17.637Z,5.70
2022-11-24T04:30:45.124Z,5.68
2022-11-24T04:33:12.411Z,4.63
2022-11-24T04:35:38.928Z,6.05
2022-11-24T04:38:05.480Z,6.25
2022-11-24T04:40:31.983Z,5.13
2022-11-24T04:42:58.551Z,5.30
2022-11-24T04:45:25.095Z,3.40
2022-11-24T04:47:51.824Z,4.70
2022-11-24T04:50:18.577Z,5.20
2022-11-24T04:52:45.448Z,5.15
2022-11-24T04:55:12.130Z,4.00
2022-11-24T04:57:38.918Z,4.43
2022-11-24T05:00:06.327Z,5.45
2022-11-24T05:02:32.819Z,4.60
2022-11-24T05:04:59.312Z,5.53
2022-11-24T05:07:25.854Z,2.95
2022-11-24T05:10:10.970Z,3.50
2022-11-24T05:12:37.522Z,4.57
2022-11-24T05:15:05.360Z,5.97
2022-11-24T05:17:34.118Z,6.30
2022-11-24T05:20:00.960Z,3.75
2022-11-24T05:22:29.241Z,4.15
2022-11-24T05:24:55.827Z,5.80
2022-11-24T05:27:22.733Z,4.20
2022-11-24T05:29:49.235Z,6.70
2022-11-24T05:32:15.715Z,5.10
2022-11-24T05:34:42.208Z,6.50
2022-11-24T05:37:09.019Z,3.65
2022-11-24T05:39:36.696Z,5.85
2022-11-24T05:42:25.246Z,8.38
2022-11-24T05:44:52.663Z,5.30
2022-11-24T05:47:19.580Z,4.60
2022-11-24T05:49:46.017Z,5.50
2022-11-24T05:52:12.711Z,4.88
2022-11-24T05:54:39.186Z,8.30
2022-11-24T05:57:05.664Z,7.72
2022-11-24T05:59:32.134Z,7.88
2022-11-24T06:01:58.780Z,9.80
2022-11-24T06:04:25.373Z,9.07
2022-11-24T06:06:51.820Z,9.50
2022-11-24T06:09:18.408Z,11.05
2022-11-24T06:11:44.807Z,10.40
2022-11-24T06:14:11.723Z,12.50
2022-11-24T06:16:38.499Z,12.10
2022-11-24T06:19:05.068Z,11.95
2022-11-24T06:21:31.862Z,17.15
2022-11-24T06:23:58.577Z,12.70
2022-11-24T06:26:25.007Z,14.55
2022-11-24T06:28:51.450Z,11.05
2022-11-24T06:31:18.153Z,13.93
2022-11-24T06:33:44.684Z,10.32
2022-11-24T06:36:14.197Z,13.48
2022-11-24T06:38:40.796Z,10.77
2022-11-24T06:41:11.603Z,13.05
2022-11-24T06:43:38.218Z,10.40
2022-11-24T06:46:05.209Z,12.98
2022-11-24T06:48:32.152Z,11.38
2022-11-24T06:51:03.247Z,14.60
2022-11-24T06:53:33.360Z,12.75
2022-11-24T06:56:01.183Z,8.57
2022-11-24T06:58:28.052Z,11.63
2022-11-24T07:00:54.515Z,10.52
2022-11-24T07:03:21.474Z,10.27
2022-11-24T07:05:48.113Z,8.02
2022-11-24T07:08:18.031Z,9.70
2022-11-24T07:10:44.903Z,11.40
2022-11-24T07:13:11.382Z,11.77
2022-11-24T07:15:37.927Z,9.75
2022-11-24T07:18:04.452Z,10.90
2022-11-24T07:20:31.063Z,10.98
2022-11-24T07:22:58.416Z,10.48
2022-11-24T07:25:25.668Z,8.98
2022-11-24T07:27:59.283Z,9.68
2022-11-24T07:30:27.462Z,9.80
2022-11-24T07:33:01.299Z,13.52
2022-11-24T07:35:28.713Z,9.75
2022-11-24T07:38:00.041Z,9.57
2022-11-24T07:40:26.909Z,8.25
2022-11-24T07:42:54.027Z,19.95
2022-11-24T07:45:20.762Z,9.30
2022-11-24T07:47:47.204Z,7.50
2022-11-24T07:50:13.776Z,10.65
2022-11-24T07:52:40.367Z,9.30
2022-11-24T07:55:07.830Z,11.10
2022-11-24T07:57:34.834Z,7.15
2022-11-24T08:00:01.340Z,8.43
2022-11-24T08:02:27.810Z,9.95
2022-11-24T08:04:54.301Z,10.73
2022-11-24T08:07:20.841Z,9.02
2022-11-24T08:09:47.470Z,6.07
2022-11-24T08:12:13.920Z,6.68
2022-11-24T08:14:40.327Z,8.00
2022-11-24T08:17:06.805Z,6.00
2022-11-24T08:19:34.336Z,9.93
2022-11-24T08:22:01.028Z,13.65
2022-11-24T08:24:29.954Z,8.15
2022-11-24T08:26:56.368Z,9.40
2022-11-24T08:29:22.868Z,7.22
2022-11-24T08:31:49.337Z,7.50
2022-11-24T08:34:15.790Z,6.95
2022-11-24T08:36:42.242Z,5.63
2022-11-24T08:39:11.966Z,10.07
2022-11-24T08:41:38.495Z,5.28
2022-11-24T08:44:04.952Z,6.43
2022-11-24T08:46:31.530Z,5.70
2022-11-24T08:48:58.011Z,9.43
2022-11-24T08:51:26.166Z,7.53
2022-11-24T08:53:58.140Z,10.57
2022-11-24T08:56:26.383Z,9.10
2022-11-24T08:58:53.516Z,7.53
2022-11-24T09:01:20.215Z,6.00
2022-11-24T09:03:50.994Z,6.72
2022-11-24T09:06:19.599Z,9.02
2022-11-24T09:08:46.079Z,4.82
2022-11-24T09:11:15.287Z,6.82
2022-11-24T09:13:42.168Z,5.85
2022-11-24T09:16:08.894Z,6.32
2022-11-24T09:18:35.782Z,6.63
2022-11-24T09:21:15.501Z,7.00
2022-11-24T09:23:42.803Z,7.18
2022-11-24T09:26:18.258Z,4.50
2022-11-24T09:28:45.825Z,4.90
2022-11-24T09:31:14.318Z,8.02
2022-11-24T09:33:41.639Z,7.10
2022-11-24T09:36:08.720Z,4.63
2022-11-24T09:38:35.481Z,6.90
2022-11-24T09:41:23.019Z,6.15
2022-11-24T09:44:26.969Z,4.82
2022-11-24T09:47:32.619Z,7.57
2022-11-24T09:50:03.467Z,6.45
2022-11-24T09:52:40.521Z,5.38
2022-11-24T09:55:34.156Z,4.65
2022-11-24T09:58:42.455Z,5.72
2022-11-24T10:01:21.496Z,5.15
2022-11-24T10:03:50.795Z,5.18
2022-11-24T10:06:34.758Z,4.60
2022-11-24T10:09:10.624Z,6.22
2022-11-24T10:12:02.021Z,4.53
2022-11-24T10:14:31.385Z,5.75
2022-11-24T10:17:22.965Z,4.13
2022-11-24T10:20:03.502Z,5.70
2022-11-24T10:23:05.094Z,6.57
2022-11-24T10:25:44.240Z,6.45
2022-11-24T10:28:14.179Z,7.10
2022-11-24T10:30:41.170Z,6.80
2022-11-24T10:33:19.517Z,4.20
2022-11-24T10:36:00.563Z,7.07
2022-11-24T10:38:33.887Z,3.83
2022-11-24T10:41:05.367Z,4.20
2022-11-24T10:43:31.844Z,7.35
2022-11-24T10:46:12.392Z,3.42
2022-11-24T10:48:45.627Z,4.20
2022-11-24T10:51:35.451Z,6.38
2022-11-24T10:54:10.682Z,4.00
2022-11-24T10:56:41.734Z,4.75
2022-11-24T10:59:20.554Z,5.30
2022-11-24T11:01:47.159Z,4.18
2022-11-24T11:04:31.525Z,4.93
2022-11-24T11:07:20.799Z,6.00
2022-11-24T11:09:48.889Z,5.53
2022-11-24T11:15:25.263Z,4.45
2022-11-24T11:17:54.559Z,5.05
2022-11-24T11:20:27.746Z,6.03
2022-11-24T11:22:55.969Z,4.55
2022-11-24T11:25:27.577Z,5.55
2022-11-24T11:28:18.422Z,5.63
2022-11-24T11:31:20.964Z,8.27
2022-11-24T11:34:16.675Z,5.82
2022-11-24T11:36:52.509Z,4.40
2022-11-24T11:39:31.054Z,6.22
2022-11-24T11:45:18.251Z,7.38
2022-11-24T11:48:03.157Z,7.88
2022-11-24T11:51:22.817Z,3.42
2022-11-24T11:54:08.610Z,4.85
2022-11-24T11:56:40.396Z,4.35
2022-11-24T11:59:06.877Z,7.50
2022-11-24T12:02:00.421Z,5.65
2022-11-24T12:04:43.510Z,6.95
2022-11-24T12:07:45.479Z,5.80
2022-11-24T12:10:20.063Z,4.75
2022-11-24T12:12:52.273Z,4.93
2022-11-24T12:15:46.060Z,3.92
2022-11-24T12:18:55.985Z,3.78
2022-11-24T12:21:15.355Z,4.57
2022-11-24T12:24:23.870Z,4.28
2022-11-24T12:27:11.043Z,6.07
2022-11-24T12:29:48.311Z,4.97
2022-11-24T12:32:57.467Z,7.72
2022-11-24T12:35:51.140Z,3.45
2022-11-24T12:38:23.548Z,5.78
2022-11-24T12:41:25.446Z,4.35
2022-11-24T12:43:52.994Z,4.88
2022-11-24T12:46:44.948Z,3.95
2022-11-24T12:49:34.093Z,4.68
2022-11-24T12:52:21.495Z,3.42
2022-11-24T12:54:47.982Z,4.15
2022-11-24T12:57:32.499Z,7.90
2022-11-24T13:00:06.197Z,6.22
2022-11-24T13:02:50.067Z,5.15
2022-11-24T13:05:33.689Z,5.18
2022-11-24T13:08:02.846Z,4.93
2022-11-24T13:10:55.904Z,6.30
2022-11-24T13:13:27.905Z,5.05
2022-11-24T13:16:28.557Z,4.38
2022-11-24T13:18:43.994Z,5.97
2022-11-24T13:21:32.325Z,5.15
2022-11-24T13:24:19.980Z,4.45
2022-11-24T13:26:55.634Z,4.93
2022-11-24T13:29:28.075Z,4.40
2022-11-24T13:32:06.439Z,4.47
2022-11-24T13:34:39.073Z,3.90
2022-11-24T13:37:34.753Z,4.80
2022-11-24T13:40:11.516Z,5.13
2022-11-24T13:43:04.092Z,6.18
2022-11-24T13:45:39.786Z,5.60
2022-11-24T13:48:22.303Z,6.03
2022-11-24T13:50:53.993Z,5.03
2022-11-24T13:53:46.831Z,3.97
2022-11-24T13:56:13.204Z,5.68
2022-11-24T13:58:56.140Z,5.65
2022-11-24T14:01:25.756Z,5.35
2022-11-24T14:04:33.308Z,5.15
2022-11-24T14:07:12.186Z,5.22
2022-11-24T14:09:45.799Z,4.07
2022-11-24T14:12:23.159Z,4.80
2022-11-24T14:14:51.991Z,6.00
2022-11-24T14:17:28.504Z,4.60
2022-11-24T14:19:57.114Z,6.38
2022-11-24T14:22:27.672Z,5.72
2022-11-24T14:24:57.138Z,5.40
2022-11-24T14:27:29.827Z,5.82
2022-11-24T14:29:59.144Z,5.82
2022-11-24T14:32:25.668Z,4.72
2022-11-24T14:34:54.039Z,5.22
2022-11-24T14:37:20.735Z,6.90
2022-11-24T14:39:47.439Z,5.43
2022-11-24T14:42:25.301Z,5.15
2022-11-24T14:44:58.621Z,5.57
2022-11-24T14:47:32.611Z,4.80
2022-11-24T14:50:15.249Z,5.90
2022-11-24T14:52:55.436Z,5.95
2022-11-24T14:55:35.242Z,6.47
2022-11-24T14:58:01.895Z,5.85
2022-11-24T15:00:32.659Z,4.78
2022-11-24T15:03:01.875Z,5.00
2022-11-24T15:05:53.489Z,6.38
2022-11-24T15:08:20.223Z,5.63
2022-11-24T15:10:47.220Z,6.00
2022-11-24T15:13:18.719Z,5.20
2022-11-24T15:15:55.324Z,4.72
2022-11-24T15:18:30.838Z,5.68
2022-11-24T15:20:57.466Z,3.80
2022-11-24T15:23:32.006Z,5.00
2022-11-24T15:26:01.413Z,5.22
2022-11-24T15:28:29.725Z,5.35
2022-11-24T15:31:09.644Z,5.15
2022-11-24T15:33:36.466Z,6.45
2022-11-24T15:36:03.134Z,4.50
2022-11-24T15:38:29.575Z,7.70
2022-11-24T15:40:59.105Z,5.70
2022-11-24T15:43:34.675Z,5.75
2022-11-24T15:46:02.498Z,4.82
2022-11-24T15:48:29.526Z,3.95
2022-11-24T15:50:57.717Z,7.18
2022-11-24T15:53:40.363Z,4.93
2022-11-24T15:56:12.133Z,5.82
2022-11-24T15:58:38.895Z,4.90
2022-11-24T16:01:05.482Z,3.92
2022-11-24T16:03:46.934Z,4.15
2022-11-24T16:06:22.165Z,5.43
2022-11-24T16:08:50.985Z,3.55
2022-11-24T16:11:17.436Z,4.70
2022-11-24T16:13:48.535Z,6.15
2022-11-24T16:16:18.588Z,6.95
2022-11-24T16:18:45.456Z,5.18
2022-11-24T16:21:12.217Z,5.40
2022-11-24T16:23:38.667Z,5.30
2022-11-24T16:26:05.425Z,4.93
2022-11-24T16:28:32.063Z,6.28
2022-11-24T16:30:58.488Z,5.18
2022-11-24T16:33:25.046Z,7.22
2022-11-24T16:35:51.501Z,5.28
2022-11-24T16:38:19.749Z,6.05
2022-11-24T16:40:54.032Z,6.10
2022-11-24T16:43:20.520Z,7.55
2022-11-24T16:45:59.632Z,6.30
2022-11-24T16:48:26.057Z,7.82
2022-11-24T16:50:52.452Z,6.15
2022-11-24T16:53:18.870Z,5.30
2022-11-24T16:55:56.694Z,5.40
2022-11-24T16:58:23.182Z,4.93
2022-11-24T17:00:50.061Z,6.47
2022-11-24T17:03:16.652Z,5.68
2022-11-24T17:05:43.058Z,7.68
2022-11-24T17:08:09.482Z,8.82
2022-11-24T17:10:39.037Z,8.18
2022-11-24T17:13:05.451Z,6.72
2022-11-24T17:15:35.472Z,7.25
2022-11-24T17:20:50.960Z,7.90
2022-11-24T17:23:19.673Z,8.63
2022-11-24T17:25:46.265Z,8.52
2022-11-24T17:33:35.574Z,7.70
2022-11-24T17:36:03.896Z,8.63
2022-11-24T17:38:33.255Z,10.00
2022-11-24T17:40:59.913Z,9.70
2022-11-24T17:43:27.497Z,9.93
2022-11-24T17:45:55.769Z,11.52
2022-11-24T17:48:22.995Z,8.15
2022-11-24T17:50:59.060Z,9.85
2022-11-24T17:53:25.532Z,8.55
2022-11-24T17:55:51.970Z,9.80
2022-11-24T17:58:18.607Z,11.32
2022-11-24T18:00:45.147Z,11.43
2022-11-24T18:03:11.623Z,14.25
2022-11-24T18:05:38.065Z,7.78
2022-11-24T18:08:04.719Z,9.38
2022-11-24T18:10:34.069Z,9.75
2022-11-24T18:13:00.518Z,7.38
2022-11-24T18:15:26.964Z,8.60
2022-11-24T18:17:53.405Z,12.05
2022-11-24T18:20:20.375Z,9.65
2022-11-24T18:25:37.138Z,10.95
2022-11-24T18:28:03.710Z,11.82
2022-11-24T18:30:30.161Z,9.95
2022-11-24T18:32:58.371Z,9.65
2022-11-24T18:35:24.764Z,8.70
2022-11-24T18:37:51.215Z,9.52
2022-11-24T18:40:17.726Z,9.07
2022-11-24T18:42:44.206Z,10.68
2022-11-24T18:45:11.104Z,11.75
2022-11-24T18:47:37.555Z,9.23
2022-11-24T18:50:04.560Z,7.47
2022-11-24T18:52:31.818Z,9.68
2022-11-24T18:55:03.751Z,11.40
2022-11-24T18:57:31.609Z,8.77
2022-11-24T18:59:58.719Z,8.35
2022-11-24T19:02:25.421Z,9.30
2022-11-24T19:04:51.905Z,8.90
2022-11-24T19:07:18.643Z,7.50
2022-11-24T19:09:45.825Z,9.60
2022-11-24T19:12:12.430Z,9.43
2022-11-24T19:14:39.320Z,9.95
2022-11-24T19:17:05.828Z,8.48
2022-11-24T19:19:34.254Z,7.22
2022-11-24T19:22:01.788Z,9.40
2022-11-24T19:24:28.364Z,6.30
2022-11-24T19:26:54.786Z,10.35
2022-11-24T19:29:21.250Z,9.10
2022-11-24T19:31:47.925Z,8.80
2022-11-24T19:34:15.595Z,9.35
2022-11-24T19:36:43.335Z,8.90
2022-11-24T19:39:16.597Z,8.20
2022-11-24T19:41:43.468Z,8.50
2022-11-24T19:44:13.590Z,7.63
2022-11-24T19:46:40.747Z,9.30
2022-11-24T19:49:08.831Z,9.98
2022-11-24T19:51:38.479Z,10.57
2022-11-24T19:54:12.888Z,13.20
2022-11-24T19:56:39.378Z,9.18
2022-11-24T19:59:06.430Z,12.35
2022-11-24T20:01:37.260Z,8.57
2022-11-24T20:04:07.259Z,8.75
2022-11-24T20:06:36.825Z,7.65
2022-11-24T20:09:06.066Z,9.50
2022-11-24T20:11:32.526Z,8.38
2022-11-24T20:13:59.332Z,8.88
2022-11-24T20:16:29.608Z,10.65
2022-11-24T20:18:58.619Z,8.70
2022-11-24T20:21:33.074Z,8.77
2022-11-24T20:24:11.250Z,10.15
2022-11-24T20:26:43.844Z,10.27
2022-11-24T20:29:12.134Z,6.45
2022-11-24T20:31:41.862Z,7.93
2022-11-24T20:34:09.096Z,7.18
2022-11-24T20:36:38.303Z,11.70
2022-11-24T20:39:07.287Z,8.13
2022-11-24T20:41:35.537Z,8.57
2022-11-24T20:44:07.029Z,8.25
2022-11-24T20:46:35.687Z,10.20
2022-11-24T20:49:06.016Z,9.55
2022-11-24T20:51:35.660Z,6.57
2022-11-24T20:54:05.670Z,8.52
2022-11-24T20:56:35.114Z,10.43
2022-11-24T20:59:01.912Z,8.90
2022-11-24T21:01:38.411Z,9.15
2022-11-24T21:04:08.298Z,8.95
2022-11-24T21:06:35.650Z,6.97
2022-11-24T21:09:04.206Z,8.63
2022-11-24T21:11:31.270Z,8.90
2022-11-24T21:13:57.726Z,6.88
2022-11-24T21:16:25.712Z,7.35
2022-11-24T21:18:56.182Z,8.23
2022-11-24T21:21:24.596Z,7.65
2022-11-24T21:23:51.662Z,9.55
2022-11-24T21:26:19.334Z,6.82
2022-11-24T21:28:47.378Z,9.27
2022-11-24T21:31:19.238Z,6.95
2022-11-24T21:33:50.522Z,6.85
2022-11-24T21:36:19.523Z,8.10
2022-11-24T21:38:57.031Z,7.68
2022-11-24T21:41:25.069Z,6.82
2022-11-24T21:43:58.616Z,9.60
2022-11-24T21:46:25.263Z,7.30
2022-11-24T21:48:51.970Z,7.90
2022-11-24T21:51:20.204Z,8.20
2022-11-24T21:53:47.459Z,7.18
2022-11-24T21:56:17.005Z,8.48
2022-11-24T21:58:48.568Z,7.82
2022-11-24T22:01:17.118Z,6.47
2022-11-24T22:03:43.976Z,6.50
2022-11-24T22:06:10.562Z,7.28
2022-11-24T22:08:37.412Z,5.72
2022-11-24T22:11:06.409Z,8.05
2022-11-24T22:13:33.266Z,7.72
2022-11-24T22:16:20.959Z,8.05
2022-11-24T22:18:48.099Z,7.80
2022-11-24T22:21:19.800Z,6.85
2022-11-24T22:23:46.367Z,10.40
2022-11-24T22:26:15.366Z,7.57
2022-11-24T22:28:42.900Z,8.20
2022-11-24T22:31:12.100Z,6.85
2022-11-24T22:33:39.233Z,6.53
2022-11-24T22:36:06.568Z,6.95
2022-11-24T22:38:33.622Z,6.45
2022-11-24T22:41:01.748Z,7.10
2022-11-24T22:43:31.699Z,5.38
2022-11-24T22:46:01.801Z,6.82
2022-11-24T22:48:28.264Z,7.78
2022-11-24T22:51:00.175Z,8.15
2022-11-24T22:53:26.615Z,8.27
2022-11-24T22:55:53.028Z,7.18
2022-11-24T22:58:19.439Z,7.68
2022-11-24T23:00:45.968Z,6.95
2022-11-24T23:03:12.627Z,8.13
2022-11-24T23:05:39.182Z,5.28
2022-11-24T23:08:05.614Z,9.23
2022-11-24T23:10:32.199Z,8.45
2022-11-24T23:12:58.674Z,6.07
2022-11-24T23:15:25.118Z,6.40
2022-11-24T23:17:51.546Z,7.38
2022-11-24T23:20:18.020Z,5.13
2022-11-24T23:22:44.561Z,7.20
2022-11-24T23:25:10.998Z,7.68
2022-11-24T23:27:37.438Z,5.78
2022-11-24T23:30:04.904Z,7.03
2022-11-24T23:32:31.339Z,5.13
2022-11-24T23:34:57.757Z,6.55
2022-11-24T23:37:39.314Z,6.63
2022-11-24T23:40:10.912Z,5.80
2022-11-24T23:42:37.363Z,4.57
2022-11-24T23:45:05.814Z,3.95
2022-11-24T23:47:32.231Z,5.68
2022-11-24T23:49:58.700Z,4.50
2022-11-24T23:52:25.143Z,7.93
2022-11-24T23:54:54.740Z,7.60
2022-11-24T23:57:21.172Z,5.88
2022-11-24T23:59:47.648Z,4.35
